sensor_id;sensor_type;location;lat;lon;timestamp;P1;durP1;ratioP1;P2;durP2;ratioP2
58974;SDS011;44751;52.236;5.178;2023-05-16T00:01:06;16.55;;;2.33;;
58974;SDS011;44751;52.236;5.178;2023-05-16T00:03:33;16.13;;;2.53;;
58974;SDS011;44751;52.236;5.178;2023-05-16T00:06:00;14.18;;;2.72;;
58974;SDS011;44751;52.236;5.178;2023-05-16T00:08:27;14.30;;;2.15;;
58974;SDS011;44751;52.236;5.178;2023-05-16T00:10:54;12.23;;;2.33;;
58974;SDS011;44751;52.236;5.178;2023-05-16T00:13:24;10.10;;;2.30;;
58974;SDS011;44751;52.236;5.178;2023-05-16T00:15:51;8.68;;;1.92;;
58974;SDS011;44751;52.236;5.178;2023-05-16T00:18:19;10.98;;;1.60;;
58974;SDS011;44751;52.236;5.178;2023-05-16T00:20:46;12.40;;;1.92;;
58974;SDS011;44751;52.236;5.178;2023-05-16T00:23:13;11.88;;;1.90;;
58974;SDS011;44751;52.236;5.178;2023-05-16T00:25:44;10.88;;;2.13;;
58974;SDS011;44751;52.236;5.178;2023-05-16T00:28:11;13.20;;;2.13;;
58974;SDS011;44751;52.236;5.178;2023-05-16T00:30:38;14.20;;;2.13;;
58974;SDS011;44751;52.236;5.178;2023-05-16T00:33:05;12.07;;;1.90;;
58974;SDS011;44751;52.236;5.178;2023-05-16T00:35:32;10.20;;;2.05;;
58974;SDS011;44751;52.236;5.178;2023-05-16T00:38:02;10.65;;;1.98;;
58974;SDS011;44751;52.236;5.178;2023-05-16T00:40:28;10.38;;;2.53;;
58974;SDS011;44751;52.236;5.178;2023-05-16T00:42:55;9.75;;;1.77;;
58974;SDS011;44751;52.236;5.178;2023-05-16T00:45:22;15.43;;;2.53;;
58974;SDS011;44751;52.236;5.178;2023-05-16T00:47:50;15.77;;;1.95;;
58974;SDS011;44751;52.236;5.178;2023-05-16T00:50:20;13.27;;;2.78;;
58974;SDS011;44751;52.236;5.178;2023-05-16T00:52:47;17.95;;;2.75;;
58974;SDS011;44751;52.236;5.178;2023-05-16T00:55:14;8.13;;;1.70;;
58974;SDS011;44751;52.236;5.178;2023-05-16T00:57:40;13.63;;;2.00;;
58974;SDS011;44751;52.236;5.178;2023-05-16T01:00:16;13.10;;;2.35;;
58974;SDS011;44751;52.236;5.178;2023-05-16T01:02:44;12.57;;;1.95;;
58974;SDS011;44751;52.236;5.178;2023-05-16T01:05:15;18.13;;;1.75;;
58974;SDS011;44751;52.236;5.178;2023-05-16T01:07:42;7.85;;;1.70;;
58974;SDS011;44751;52.236;5.178;2023-05-16T01:10:14;11.07;;;2.47;;
58974;SDS011;44751;52.236;5.178;2023-05-16T01:12:47;12.75;;;2.05;;
58974;SDS011;44751;52.236;5.178;2023-05-16T01:15:29;10.88;;;1.85;;
58974;SDS011;44751;52.236;5.178;2023-05-16T01:18:17;13.85;;;1.50;;
58974;SDS011;44751;52.236;5.178;2023-05-16T01:20:55;13.45;;;2.40;;
58974;SDS011;44751;52.236;5.178;2023-05-16T01:26:40;10.90;;;1.90;;
58974;SDS011;44751;52.236;5.178;2023-05-16T01:29:07;15.25;;;2.05;;
58974;SDS011;44751;52.236;5.178;2023-05-16T01:31:34;10.18;;;2.20;;
58974;SDS011;44751;52.236;5.178;2023-05-16T01:34:00;11.90;;;2.05;;
58974;SDS011;44751;52.236;5.178;2023-05-16T01:36:35;9.68;;;2.25;;
58974;SDS011;44751;52.236;5.178;2023-05-16T01:39:16;11.02;;;1.58;;
58974;SDS011;44751;52.236;5.178;2023-05-16T01:44:45;12.40;;;1.88;;
58974;SDS011;44751;52.236;5.178;2023-05-16T01:47:29;9.13;;;1.70;;
58974;SDS011;44751;52.236;5.178;2023-05-16T01:49:59;13.88;;;1.90;;
58974;SDS011;44751;52.236;5.178;2023-05-16T01:52:44;11.60;;;2.00;;
58974;SDS011;44751;52.236;5.178;2023-05-16T01:55:47;8.25;;;1.75;;
58974;SDS011;44751;52.236;5.178;2023-05-16T01:58:21;15.45;;;2.20;;
58974;SDS011;44751;52.236;5.178;2023-05-16T02:00:53;9.95;;;1.77;;
58974;SDS011;44751;52.236;5.178;2023-05-16T02:03:20;14.05;;;2.30;;
58974;SDS011;44751;52.236;5.178;2023-05-16T02:05:52;9.10;;;1.80;;
58974;SDS011;44751;52.236;5.178;2023-05-16T02:08:19;11.77;;;1.85;;
58974;SDS011;44751;52.236;5.178;2023-05-16T02:10:46;9.45;;;1.73;;
58974;SDS011;44751;52.236;5.178;2023-05-16T02:13:13;11.85;;;1.95;;
58974;SDS011;44751;52.236;5.178;2023-05-16T02:15:40;12.15;;;2.33;;
58974;SDS011;44751;52.236;5.178;2023-05-16T02:18:12;10.77;;;2.03;;
58974;SDS011;44751;52.236;5.178;2023-05-16T02:20:38;10.05;;;2.00;;
58974;SDS011;44751;52.236;5.178;2023-05-16T02:23:05;13.63;;;2.30;;
58974;SDS011;44751;52.236;5.178;2023-05-16T02:25:32;8.18;;;2.25;;
58974;SDS011;44751;52.236;5.178;2023-05-16T02:27:59;10.57;;;2.28;;
58974;SDS011;44751;52.236;5.178;2023-05-16T02:30:28;10.80;;;1.92;;
58974;SDS011;44751;52.236;5.178;2023-05-16T02:32:55;17.52;;;2.08;;
58974;SDS011;44751;52.236;5.178;2023-05-16T02:35:22;9.07;;;1.88;;
58974;SDS011;44751;52.236;5.178;2023-05-16T02:37:48;13.20;;;1.92;;
58974;SDS011;44751;52.236;5.178;2023-05-16T02:40:15;10.23;;;1.65;;
58974;SDS011;44751;52.236;5.178;2023-05-16T02:42:41;10.00;;;1.90;;
58974;SDS011;44751;52.236;5.178;2023-05-16T02:45:08;11.45;;;2.00;;
58974;SDS011;44751;52.236;5.178;2023-05-16T02:47:36;12.02;;;2.13;;
58974;SDS011;44751;52.236;5.178;2023-05-16T02:50:02;10.07;;;2.47;;
58974;SDS011;44751;52.236;5.178;2023-05-16T02:52:30;9.93;;;2.25;;
58974;SDS011;44751;52.236;5.178;2023-05-16T02:54:56;11.57;;;2.22;;
58974;SDS011;44751;52.236;5.178;2023-05-16T02:57:33;12.65;;;1.95;;
58974;SDS011;44751;52.236;5.178;2023-05-16T02:59:59;14.68;;;1.90;;
58974;SDS011;44751;52.236;5.178;2023-05-16T03:02:29;12.02;;;2.13;;
58974;SDS011;44751;52.236;5.178;2023-05-16T03:04:56;9.88;;;2.20;;
58974;SDS011;44751;52.236;5.178;2023-05-16T03:07:23;10.77;;;2.08;;
58974;SDS011;44751;52.236;5.178;2023-05-16T03:09:50;7.07;;;1.55;;
58974;SDS011;44751;52.236;5.178;2023-05-16T03:12:17;12.77;;;1.90;;
58974;SDS011;44751;52.236;5.178;2023-05-16T03:14:44;11.60;;;1.55;;
58974;SDS011;44751;52.236;5.178;2023-05-16T03:17:10;11.30;;;2.00;;
58974;SDS011;44751;52.236;5.178;2023-05-16T03:19:42;12.35;;;2.20;;
58974;SDS011;44751;52.236;5.178;2023-05-16T03:22:11;13.75;;;2.50;;
58974;SDS011;44751;52.236;5.178;2023-05-16T03:24:38;14.80;;;1.77;;
58974;SDS011;44751;52.236;5.178;2023-05-16T03:27:05;10.57;;;1.95;;
58974;SDS011;44751;52.236;5.178;2023-05-16T03:29:32;13.98;;;1.77;;
58974;SDS011;44751;52.236;5.178;2023-05-16T03:31:59;7.32;;;1.65;;
58974;SDS011;44751;52.236;5.178;2023-05-16T03:34:29;11.60;;;2.25;;
58974;SDS011;44751;52.236;5.178;2023-05-16T03:36:55;8.07;;;2.13;;
58974;SDS011;44751;52.236;5.178;2023-05-16T03:39:22;11.75;;;1.90;;
58974;SDS011;44751;52.236;5.178;2023-05-16T03:41:51;13.68;;;2.08;;
58974;SDS011;44751;52.236;5.178;2023-05-16T03:44:22;11.23;;;1.65;;
58974;SDS011;44751;52.236;5.178;2023-05-16T03:46:49;13.40;;;2.08;;
58974;SDS011;44751;52.236;5.178;2023-05-16T03:49:18;13.88;;;1.98;;
58974;SDS011;44751;52.236;5.178;2023-05-16T03:51:46;9.18;;;2.00;;
58974;SDS011;44751;52.236;5.178;2023-05-16T03:54:12;9.90;;;2.08;;
58974;SDS011;44751;52.236;5.178;2023-05-16T03:56:43;12.70;;;1.60;;
58974;SDS011;44751;52.236;5.178;2023-05-16T03:59:09;10.65;;;1.70;;
58974;SDS011;44751;52.236;5.178;2023-05-16T04:01:36;10.32;;;1.60;;
58974;SDS011;44751;52.236;5.178;2023-05-16T04:04:03;11.95;;;1.95;;
58974;SDS011;44751;52.236;5.178;2023-05-16T04:06:38;7.63;;;1.42;;
58974;SDS011;44751;52.236;5.178;2023-05-16T04:09:05;10.38;;;1.80;;
58974;SDS011;44751;52.236;5.178;2023-05-16T04:11:31;10.02;;;2.20;;
58974;SDS011;44751;52.236;5.178;2023-05-16T04:13:58;9.00;;;1.52;;
58974;SDS011;44751;52.236;5.178;2023-05-16T04:16:27;9.00;;;1.80;;
58974;SDS011;44751;52.236;5.178;2023-05-16T04:18:55;9.32;;;1.88;;
58974;SDS011;44751;52.236;5.178;2023-05-16T04:21:23;9.93;;;1.90;;
58974;SDS011;44751;52.236;5.178;2023-05-16T04:23:49;11.70;;;1.88;;
58974;SDS011;44751;52.236;5.178;2023-05-16T04:26:16;9.57;;;2.15;;
58974;SDS011;44751;52.236;5.178;2023-05-16T04:28:43;11.68;;;1.88;;
58974;SDS011;44751;52.236;5.178;2023-05-16T04:31:11;11.02;;;2.97;;
58974;SDS011;44751;52.236;5.178;2023-05-16T04:33:38;10.70;;;1.95;;
58974;SDS011;44751;52.236;5.178;2023-05-16T04:36:05;11.45;;;1.75;;
58974;SDS011;44751;52.236;5.178;2023-05-16T04:38:32;8.93;;;1.70;;
58974;SDS011;44751;52.236;5.178;2023-05-16T04:40:59;8.88;;;1.55;;
58974;SDS011;44751;52.236;5.178;2023-05-16T04:43:30;8.65;;;1.70;;
58974;SDS011;44751;52.236;5.178;2023-05-16T04:45:57;10.45;;;1.63;;
58974;SDS011;44751;52.236;5.178;2023-05-16T04:48:24;11.10;;;2.28;;
58974;SDS011;44751;52.236;5.178;2023-05-16T04:50:51;9.70;;;1.58;;
58974;SDS011;44751;52.236;5.178;2023-05-16T04:53:20;12.45;;;1.75;;
58974;SDS011;44751;52.236;5.178;2023-05-16T04:55:48;10.90;;;1.75;;
58974;SDS011;44751;52.236;5.178;2023-05-16T04:58:15;10.13;;;1.85;;
58974;SDS011;44751;52.236;5.178;2023-05-16T05:00:44;6.38;;;1.33;;
58974;SDS011;44751;52.236;5.178;2023-05-16T05:03:11;12.68;;;1.70;;
58974;SDS011;44751;52.236;5.178;2023-05-16T05:05:38;9.85;;;2.00;;
58974;SDS011;44751;52.236;5.178;2023-05-16T05:08:06;10.85;;;1.60;;
58974;SDS011;44751;52.236;5.178;2023-05-16T05:10:32;12.05;;;1.38;;
58974;SDS011;44751;52.236;5.178;2023-05-16T05:12:59;4.78;;;1.30;;
58974;SDS011;44751;52.236;5.178;2023-05-16T05:15:26;8.20;;;1.85;;
58974;SDS011;44751;52.236;5.178;2023-05-16T05:17:52;6.88;;;1.40;;
58974;SDS011;44751;52.236;5.178;2023-05-16T05:20:25;9.32;;;1.80;;
58974;SDS011;44751;52.236;5.178;2023-05-16T05:22:53;9.05;;;1.67;;
58974;SDS011;44751;52.236;5.178;2023-05-16T05:25:20;12.13;;;1.55;;
58974;SDS011;44751;52.236;5.178;2023-05-16T05:27:46;11.75;;;2.47;;
58974;SDS011;44751;52.236;5.178;2023-05-16T05:30:13;10.60;;;1.95;;
58974;SDS011;44751;52.236;5.178;2023-05-16T05:32:44;8.60;;;1.50;;
58974;SDS011;44751;52.236;5.178;2023-05-16T05:35:11;11.23;;;2.13;;
58974;SDS011;44751;52.236;5.178;2023-05-16T05:37:37;8.40;;;1.40;;
58974;SDS011;44751;52.236;5.178;2023-05-16T05:40:04;9.60;;;1.73;;
58974;SDS011;44751;52.236;5.178;2023-05-16T05:42:33;9.98;;;2.05;;
58974;SDS011;44751;52.236;5.178;2023-05-16T05:45:01;10.95;;;2.00;;
58974;SDS011;44751;52.236;5.178;2023-05-16T05:47:27;6.45;;;1.45;;
58974;SDS011;44751;52.236;5.178;2023-05-16T05:49:54;7.95;;;1.20;;
58974;SDS011;44751;52.236;5.178;2023-05-16T05:52:21;8.70;;;1.85;;
58974;SDS011;44751;52.236;5.178;2023-05-16T05:54:47;8.40;;;1.60;;
58974;SDS011;44751;52.236;5.178;2023-05-16T05:57:13;9.25;;;1.73;;
58974;SDS011;44751;52.236;5.178;2023-05-16T05:59:42;11.38;;;1.55;;
58974;SDS011;44751;52.236;5.178;2023-05-16T06:02:09;8.38;;;1.60;;
58974;SDS011;44751;52.236;5.178;2023-05-16T06:04:35;8.38;;;1.40;;
58974;SDS011;44751;52.236;5.178;2023-05-16T06:07:02;5.22;;;1.42;;
58974;SDS011;44751;52.236;5.178;2023-05-16T06:09:29;6.88;;;1.45;;
58974;SDS011;44751;52.236;5.178;2023-05-16T06:11:55;8.63;;;1.83;;
58974;SDS011;44751;52.236;5.178;2023-05-16T06:14:22;7.00;;;1.63;;
58974;SDS011;44751;52.236;5.178;2023-05-16T06:16:48;12.15;;;1.38;;
58974;SDS011;44751;52.236;5.178;2023-05-16T06:19:15;6.38;;;1.30;;
58974;SDS011;44751;52.236;5.178;2023-05-16T06:21:41;8.25;;;1.80;;
58974;SDS011;44751;52.236;5.178;2023-05-16T06:24:09;8.65;;;1.58;;
58974;SDS011;44751;52.236;5.178;2023-05-16T06:26:38;7.65;;;1.30;;
58974;SDS011;44751;52.236;5.178;2023-05-16T06:29:04;7.93;;;1.38;;
58974;SDS011;44751;52.236;5.178;2023-05-16T06:31:31;7.40;;;0.98;;
58974;SDS011;44751;52.236;5.178;2023-05-16T06:33:57;7.47;;;1.40;;
58974;SDS011;44751;52.236;5.178;2023-05-16T06:36:24;5.97;;;1.20;;
58974;SDS011;44751;52.236;5.178;2023-05-16T06:38:52;10.25;;;1.55;;
58974;SDS011;44751;52.236;5.178;2023-05-16T06:41:22;6.32;;;1.13;;
58974;SDS011;44751;52.236;5.178;2023-05-16T06:43:48;6.80;;;1.20;;
58974;SDS011;44751;52.236;5.178;2023-05-16T06:46:15;7.55;;;1.45;;
58974;SDS011;44751;52.236;5.178;2023-05-16T06:48:41;8.55;;;1.40;;
58974;SDS011;44751;52.236;5.178;2023-05-16T06:51:08;8.70;;;1.27;;
58974;SDS011;44751;52.236;5.178;2023-05-16T06:53:37;9.32;;;2.08;;
58974;SDS011;44751;52.236;5.178;2023-05-16T06:56:03;6.80;;;1.05;;
58974;SDS011;44751;52.236;5.178;2023-05-16T06:58:30;7.50;;;1.27;;
58974;SDS011;44751;52.236;5.178;2023-05-16T07:00:56;8.60;;;1.67;;
58974;SDS011;44751;52.236;5.178;2023-05-16T07:03:23;5.50;;;1.02;;
58974;SDS011;44751;52.236;5.178;2023-05-16T07:05:51;3.70;;;1.35;;
58974;SDS011;44751;52.236;5.178;2023-05-16T07:08:24;7.50;;;1.10;;
58974;SDS011;44751;52.236;5.178;2023-05-16T07:10:50;6.68;;;0.93;;
58974;SDS011;44751;52.236;5.178;2023-05-16T07:13:17;3.72;;;0.85;;
58974;SDS011;44751;52.236;5.178;2023-05-16T07:15:43;4.50;;;1.10;;
58974;SDS011;44751;52.236;5.178;2023-05-16T07:18:12;5.95;;;1.00;;
58974;SDS011;44751;52.236;5.178;2023-05-16T07:20:42;5.15;;;1.45;;
58974;SDS011;44751;52.236;5.178;2023-05-16T07:23:08;7.20;;;0.95;;
58974;SDS011;44751;52.236;5.178;2023-05-16T07:25:34;4.63;;;1.35;;
58974;SDS011;44751;52.236;5.178;2023-05-16T07:28:01;9.15;;;2.08;;
58974;SDS011;44751;52.236;5.178;2023-05-16T07:30:30;6.90;;;0.90;;
58974;SDS011;44751;52.236;5.178;2023-05-16T07:32:58;6.13;;;1.10;;
58974;SDS011;44751;52.236;5.178;2023-05-16T07:35:25;8.05;;;1.10;;
58974;SDS011;44751;52.236;5.178;2023-05-16T07:37:51;5.80;;;0.80;;
58974;SDS011;44751;52.236;5.178;2023-05-16T07:40:18;5.03;;;0.98;;
58974;SDS011;44751;52.236;5.178;2023-05-16T07:42:55;6.32;;;1.30;;
58974;SDS011;44751;52.236;5.178;2023-05-16T07:45:21;6.15;;;1.10;;
58974;SDS011;44751;52.236;5.178;2023-05-16T07:47:48;6.13;;;1.35;;
58974;SDS011;44751;52.236;5.178;2023-05-16T07:50:14;5.63;;;1.15;;
58974;SDS011;44751;52.236;5.178;2023-05-16T07:52:49;7.65;;;1.20;;
58974;SDS011;44751;52.236;5.178;2023-05-16T07:55:16;3.58;;;0.98;;
58974;SDS011;44751;52.236;5.178;2023-05-16T07:57:42;5.47;;;1.10;;
58974;SDS011;44751;52.236;5.178;2023-05-16T08:00:09;4.70;;;1.25;;
58974;SDS011;44751;52.236;5.178;2023-05-16T08:02:38;6.88;;;1.38;;
58974;SDS011;44751;52.236;5.178;2023-05-16T08:05:07;5.70;;;1.02;;
58974;SDS011;44751;52.236;5.178;2023-05-16T08:07:34;5.85;;;0.90;;
58974;SDS011;44751;52.236;5.178;2023-05-16T08:10:00;8.02;;;1.30;;
58974;SDS011;44751;52.236;5.178;2023-05-16T08:12:27;7.57;;;2.05;;
58974;SDS011;44751;52.236;5.178;2023-05-16T08:14:54;7.32;;;1.20;;
58974;SDS011;44751;52.236;5.178;2023-05-16T08:17:21;4.40;;;1.00;;
58974;SDS011;44751;52.236;5.178;2023-05-16T08:19:50;5.22;;;1.38;;
58974;SDS011;44751;52.236;5.178;2023-05-16T08:22:16;4.93;;;1.23;;
58974;SDS011;44751;52.236;5.178;2023-05-16T08:24:43;6.10;;;1.05;;
58974;SDS011;44751;52.236;5.178;2023-05-16T08:27:09;6.55;;;1.20;;
58974;SDS011;44751;52.236;5.178;2023-05-16T08:29:36;7.10;;;1.45;;
58974;SDS011;44751;52.236;5.178;2023-05-16T08:32:02;5.03;;;1.10;;
58974;SDS011;44751;52.236;5.178;2023-05-16T08:34:33;4.63;;;1.10;;
58974;SDS011;44751;52.236;5.178;2023-05-16T08:37:00;5.38;;;1.00;;
58974;SDS011;44751;52.236;5.178;2023-05-16T08:39:27;6.15;;;1.00;;
58974;SDS011;44751;52.236;5.178;2023-05-16T08:41:54;7.47;;;1.48;;
58974;SDS011;44751;52.236;5.178;2023-05-16T08:44:21;4.10;;;1.15;;
58974;SDS011;44751;52.236;5.178;2023-05-16T08:46:49;5.15;;;1.20;;
58974;SDS011;44751;52.236;5.178;2023-05-16T08:49:17;7.15;;;1.40;;
58974;SDS011;44751;52.236;5.178;2023-05-16T08:51:45;4.70;;;0.90;;
58974;SDS011;44751;52.236;5.178;2023-05-16T08:54:12;8.10;;;1.60;;
58974;SDS011;44751;52.236;5.178;2023-05-16T08:56:40;5.90;;;1.40;;
58974;SDS011;44751;52.236;5.178;2023-05-16T08:59:07;3.75;;;1.25;;
58974;SDS011;44751;52.236;5.178;2023-05-16T09:01:35;6.82;;;1.33;;
58974;SDS011;44751;52.236;5.178;2023-05-16T09:04:03;4.32;;;1.35;;
58974;SDS011;44751;52.236;5.178;2023-05-16T09:06:32;5.03;;;0.93;;
58974;SDS011;44751;52.236;5.178;2023-05-16T09:08:58;7.57;;;1.33;;
58974;SDS011;44751;52.236;5.178;2023-05-16T09:11:25;8.68;;;1.10;;
58974;SDS011;44751;52.236;5.178;2023-05-16T09:13:51;5.90;;;1.20;;
58974;SDS011;44751;52.236;5.178;2023-05-16T09:16:18;4.32;;;1.00;;
58974;SDS011;44751;52.236;5.178;2023-05-16T09:18:46;4.13;;;0.95;;
58974;SDS011;44751;52.236;5.178;2023-05-16T09:21:18;6.53;;;1.00;;
58974;SDS011;44751;52.236;5.178;2023-05-16T09:23:47;5.30;;;1.00;;
58974;SDS011;44751;52.236;5.178;2023-05-16T09:26:15;6.70;;;1.30;;
58974;SDS011;44751;52.236;5.178;2023-05-16T09:28:41;5.13;;;1.20;;
58974;SDS011;44751;52.236;5.178;2023-05-16T09:31:21;5.82;;;1.55;;
58974;SDS011;44751;52.236;5.178;2023-05-16T09:33:55;6.10;;;1.52;;
58974;SDS011;44751;52.236;5.178;2023-05-16T09:36:30;4.35;;;1.33;;
58974;SDS011;44751;52.236;5.178;2023-05-16T09:38:57;5.70;;;1.10;;
58974;SDS011;44751;52.236;5.178;2023-05-16T09:41:23;5.35;;;1.30;;
58974;SDS011;44751;52.236;5.178;2023-05-16T09:43:50;4.95;;;1.65;;
58974;SDS011;44751;52.236;5.178;2023-05-16T09:46:16;5.55;;;1.30;;
58974;SDS011;44751;52.236;5.178;2023-05-16T09:48:47;5.00;;;1.10;;
58974;SDS011;44751;52.236;5.178;2023-05-16T09:51:15;4.20;;;1.10;;
58974;SDS011;44751;52.236;5.178;2023-05-16T09:53:46;4.43;;;1.10;;
58974;SDS011;44751;52.236;5.178;2023-05-16T09:56:14;8.55;;;1.50;;
58974;SDS011;44751;52.236;5.178;2023-05-16T09:58:42;8.00;;;1.25;;
58974;SDS011;44751;52.236;5.178;2023-05-16T10:01:12;4.93;;;1.30;;
58974;SDS011;44751;52.236;5.178;2023-05-16T10:03:40;3.55;;;1.00;;
58974;SDS011;44751;52.236;5.178;2023-05-16T10:06:07;5.45;;;1.40;;
58974;SDS011;44751;52.236;5.178;2023-05-16T10:08:34;5.18;;;1.02;;
58974;SDS011;44751;52.236;5.178;2023-05-16T10:11:05;6.80;;;1.20;;
58974;SDS011;44751;52.236;5.178;2023-05-16T10:13:32;5.13;;;1.35;;
58974;SDS011;44751;52.236;5.178;2023-05-16T10:16:01;5.20;;;1.10;;
58974;SDS011;44751;52.236;5.178;2023-05-16T10:18:32;3.22;;;1.00;;
58974;SDS011;44751;52.236;5.178;2023-05-16T10:21:07;5.57;;;1.45;;
58974;SDS011;44751;52.236;5.178;2023-05-16T10:23:35;3.95;;;1.02;;
58974;SDS011;44751;52.236;5.178;2023-05-16T10:26:06;3.45;;;0.80;;
58974;SDS011;44751;52.236;5.178;2023-05-16T10:28:40;4.45;;;1.30;;
58974;SDS011;44751;52.236;5.178;2023-05-16T10:31:09;5.05;;;1.17;;
58974;SDS011;44751;52.236;5.178;2023-05-16T10:33:36;5.90;;;1.17;;
58974;SDS011;44751;52.236;5.178;2023-05-16T10:36:02;4.78;;;1.10;;
58974;SDS011;44751;52.236;5.178;2023-05-16T10:38:29;5.93;;;0.98;;
58974;SDS011;44751;52.236;5.178;2023-05-16T10:41:01;5.17;;;1.00;;
58974;SDS011;44751;52.236;5.178;2023-05-16T10:43:29;5.50;;;1.17;;
58974;SDS011;44751;52.236;5.178;2023-05-16T10:45:58;4.25;;;0.90;;
58974;SDS011;44751;52.236;5.178;2023-05-16T10:48:29;7.43;;;1.27;;
58974;SDS011;44751;52.236;5.178;2023-05-16T10:51:02;5.82;;;1.05;;
58974;SDS011;44751;52.236;5.178;2023-05-16T10:54:07;5.15;;;1.13;;
58974;SDS011;44751;52.236;5.178;2023-05-16T10:56:36;6.05;;;1.00;;
58974;SDS011;44751;52.236;5.178;2023-05-16T10:59:12;5.75;;;1.33;;
58974;SDS011;44751;52.236;5.178;2023-05-16T11:01:52;5.18;;;1.00;;
58974;SDS011;44751;52.236;5.178;2023-05-16T11:04:27;3.90;;;1.00;;
58974;SDS011;44751;52.236;5.178;2023-05-16T11:07:11;5.05;;;1.05;;
58974;SDS011;44751;52.236;5.178;2023-05-16T11:09:42;4.05;;;0.95;;
58974;SDS011;44751;52.236;5.178;2023-05-16T11:12:10;5.03;;;0.93;;
58974;SDS011;44751;52.236;5.178;2023-05-16T11:14:39;4.53;;;1.00;;
58974;SDS011;44751;52.236;5.178;2023-05-16T11:17:11;5.20;;;1.20;;
58974;SDS011;44751;52.236;5.178;2023-05-16T11:19:54;2.75;;;0.98;;
58974;SDS011;44751;52.236;5.178;2023-05-16T11:22:23;6.28;;;1.55;;
58974;SDS011;44751;52.236;5.178;2023-05-16T11:27:32;4.45;;;0.90;;
58974;SDS011;44751;52.236;5.178;2023-05-16T11:32:34;4.35;;;1.10;;
58974;SDS011;44751;52.236;5.178;2023-05-16T11:35:03;4.93;;;0.75;;
58974;SDS011;44751;52.236;5.178;2023-05-16T11:37:31;4.47;;;1.52;;
58974;SDS011;44751;52.236;5.178;2023-05-16T11:39:58;4.38;;;0.90;;
58974;SDS011;44751;52.236;5.178;2023-05-16T11:42:33;7.22;;;1.02;;
58974;SDS011;44751;52.236;5.178;2023-05-16T11:45:10;3.63;;;0.90;;
58974;SDS011;44751;52.236;5.178;2023-05-16T11:47:38;6.28;;;1.35;;
58974;SDS011;44751;52.236;5.178;2023-05-16T11:50:12;3.58;;;1.40;;
58974;SDS011;44751;52.236;5.178;2023-05-16T11:52:41;4.60;;;1.02;;
58974;SDS011;44751;52.236;5.178;2023-05-16T11:55:09;4.75;;;0.95;;
58974;SDS011;44751;52.236;5.178;2023-05-16T11:57:39;3.10;;;1.10;;
58974;SDS011;44751;52.236;5.178;2023-05-16T12:00:15;5.82;;;1.35;;
58974;SDS011;44751;52.236;5.178;2023-05-16T12:02:46;3.55;;;0.88;;
58974;SDS011;44751;52.236;5.178;2023-05-16T12:05:16;3.30;;;1.10;;
58974;SDS011;44751;52.236;5.178;2023-05-16T12:07:50;5.70;;;1.00;;
58974;SDS011;44751;52.236;5.178;2023-05-16T12:10:18;6.43;;;1.02;;
58974;SDS011;44751;52.236;5.178;2023-05-16T12:12:48;5.07;;;1.17;;
58974;SDS011;44751;52.236;5.178;2023-05-16T12:15:19;2.72;;;1.00;;
58974;SDS011;44751;52.236;5.178;2023-05-16T12:17:46;8.02;;;1.35;;
58974;SDS011;44751;52.236;5.178;2023-05-16T12:20:12;7.43;;;1.33;;
58974;SDS011;44751;52.236;5.178;2023-05-16T12:22:41;6.60;;;1.58;;
58974;SDS011;44751;52.236;5.178;2023-05-16T12:25:21;4.05;;;0.85;;
58974;SDS011;44751;52.236;5.178;2023-05-16T12:27:52;5.13;;;0.95;;
58974;SDS011;44751;52.236;5.178;2023-05-16T12:30:23;4.15;;;1.02;;
58974;SDS011;44751;52.236;5.178;2023-05-16T12:33:00;6.28;;;1.00;;
58974;SDS011;44751;52.236;5.178;2023-05-16T12:35:29;4.70;;;1.13;;
58974;SDS011;44751;52.236;5.178;2023-05-16T12:37:57;3.97;;;0.93;;
58974;SDS011;44751;52.236;5.178;2023-05-16T12:40:27;4.05;;;0.90;;
58974;SDS011;44751;52.236;5.178;2023-05-16T12:42:56;4.43;;;1.15;;
58974;SDS011;44751;52.236;5.178;2023-05-16T12:45:23;7.88;;;1.00;;
58974;SDS011;44751;52.236;5.178;2023-05-16T12:47:51;5.38;;;1.00;;
58974;SDS011;44751;52.236;5.178;2023-05-16T12:50:18;4.65;;;1.25;;
58974;SDS011;44751;52.236;5.178;2023-05-16T12:52:48;6.70;;;1.00;;
58974;SDS011;44751;52.236;5.178;2023-05-16T12:55:16;3.55;;;0.95;;
58974;SDS011;44751;52.236;5.178;2023-05-16T12:57:43;5.18;;;1.00;;
58974;SDS011;44751;52.236;5.178;2023-05-16T13:00:11;6.70;;;1.20;;
58974;SDS011;44751;52.236;5.178;2023-05-16T13:02:42;6.20;;;1.20;;
58974;SDS011;44751;52.236;5.178;2023-05-16T13:05:08;5.18;;;1.17;;
58974;SDS011;44751;52.236;5.178;2023-05-16T13:07:35;6.22;;;1.20;;
58974;SDS011;44751;52.236;5.178;2023-05-16T13:10:03;5.07;;;1.25;;
58974;SDS011;44751;52.236;5.178;2023-05-16T13:12:30;6.18;;;1.20;;
58974;SDS011;44751;52.236;5.178;2023-05-16T13:14:59;6.82;;;1.05;;
58974;SDS011;44751;52.236;5.178;2023-05-16T13:17:26;5.78;;;1.33;;
58974;SDS011;44751;52.236;5.178;2023-05-16T13:19:54;4.15;;;0.90;;
58974;SDS011;44751;52.236;5.178;2023-05-16T13:22:20;3.17;;;0.80;;
58974;SDS011;44751;52.236;5.178;2023-05-16T13:24:47;5.13;;;1.13;;
58974;SDS011;44751;52.236;5.178;2023-05-16T13:27:16;6.00;;;1.40;;
58974;SDS011;44751;52.236;5.178;2023-05-16T13:29:45;5.03;;;1.17;;
58974;SDS011;44751;52.236;5.178;2023-05-16T13:32:11;3.42;;;0.80;;
58974;SDS011;44751;52.236;5.178;2023-05-16T13:34:38;4.20;;;1.02;;
58974;SDS011;44751;52.236;5.178;2023-05-16T13:37:04;4.18;;;1.23;;
58974;SDS011;44751;52.236;5.178;2023-05-16T13:39:32;3.10;;;0.90;;
58974;SDS011;44751;52.236;5.178;2023-05-16T13:42:02;5.20;;;1.08;;
58974;SDS011;44751;52.236;5.178;2023-05-16T13:44:29;4.82;;;1.00;;
58974;SDS011;44751;52.236;5.178;2023-05-16T13:46:56;7.03;;;1.10;;
58974;SDS011;44751;52.236;5.178;2023-05-16T13:49:22;3.63;;;1.02;;
58974;SDS011;44751;52.236;5.178;2023-05-16T13:51:49;4.53;;;1.25;;
58974;SDS011;44751;52.236;5.178;2023-05-16T13:54:22;4.68;;;1.20;;
58974;SDS011;44751;52.236;5.178;2023-05-16T13:56:49;5.32;;;1.25;;
58974;SDS011;44751;52.236;5.178;2023-05-16T13:59:15;4.50;;;1.00;;
58974;SDS011;44751;52.236;5.178;2023-05-16T14:01:42;6.07;;;1.08;;
58974;SDS011;44751;52.236;5.178;2023-05-16T14:04:09;4.93;;;1.10;;
58974;SDS011;44751;52.236;5.178;2023-05-16T14:06:40;5.47;;;1.15;;
58974;SDS011;44751;52.236;5.178;2023-05-16T14:09:06;4.97;;;1.00;;
58974;SDS011;44751;52.236;5.178;2023-05-16T14:11:33;4.80;;;1.02;;
58974;SDS011;44751;52.236;5.178;2023-05-16T14:14:00;6.43;;;1.10;;
58974;SDS011;44751;52.236;5.178;2023-05-16T14:16:26;6.10;;;1.38;;
58974;SDS011;44751;52.236;5.178;2023-05-16T14:18:57;6.05;;;1.13;;
58974;SDS011;44751;52.236;5.178;2023-05-16T14:21:23;3.85;;;1.15;;
58974;SDS011;44751;52.236;5.178;2023-05-16T14:23:50;5.25;;;1.15;;
58974;SDS011;44751;52.236;5.178;2023-05-16T14:26:17;3.65;;;0.90;;
58974;SDS011;44751;52.236;5.178;2023-05-16T14:28:46;4.32;;;1.10;;
58974;SDS011;44751;52.236;5.178;2023-05-16T14:31:16;5.00;;;0.95;;
58974;SDS011;44751;52.236;5.178;2023-05-16T14:33:43;4.80;;;0.90;;
58974;SDS011;44751;52.236;5.178;2023-05-16T14:36:09;4.03;;;1.02;;
58974;SDS011;44751;52.236;5.178;2023-05-16T14:38:36;5.57;;;1.27;;
58974;SDS011;44751;52.236;5.178;2023-05-16T14:41:02;3.03;;;0.80;;
58974;SDS011;44751;52.236;5.178;2023-05-16T14:43:33;4.60;;;1.00;;
58974;SDS011;44751;52.236;5.178;2023-05-16T14:46:01;4.90;;;1.38;;
58974;SDS011;44751;52.236;5.178;2023-05-16T14:48:28;5.00;;;1.10;;
58974;SDS011;44751;52.236;5.178;2023-05-16T14:50:55;5.68;;;1.20;;
58974;SDS011;44751;52.236;5.178;2023-05-16T14:53:22;4.82;;;1.10;;
58974;SDS011;44751;52.236;5.178;2023-05-16T14:55:52;4.93;;;1.20;;
58974;SDS011;44751;52.236;5.178;2023-05-16T14:58:19;4.10;;;1.10;;
58974;SDS011;44751;52.236;5.178;2023-05-16T15:00:45;4.05;;;1.23;;
58974;SDS011;44751;52.236;5.178;2023-05-16T15:03:12;3.75;;;0.98;;